createdAt,value
2019-02-20T00:00:59.364Z,77.52
2019-02-20T00:03:49.212Z,77.52
2019-02-20T00:06:38.787Z,78.53
2019-02-20T00:09:28.169Z,78.95
2019-02-20T00:12:18.073Z,79.27
2019-02-20T00:15:22.492Z,78.85
2019-02-20T00:18:11.723Z,79.10
2019-02-20T00:21:01.151Z,79.04
2019-02-20T00:23:50.615Z,78.79
2019-02-20T00:26:40.152Z,78.60
2019-02-20T00:29:29.364Z,78.11
2019-02-20T00:32:18.530Z,78.17
2019-02-20T00:35:08.219Z,78.04
2019-02-20T00:37:57.739Z,77.91
2019-02-20T00:40:47.246Z,77.58
2019-02-20T00:43:38.672Z,77.55
2019-02-20T00:46:36.144Z,78.20
2019-02-20T00:49:31.090Z,78.69
2019-02-20T00:52:54.943Z,78.66
2019-02-20T00:55:44.809Z,78.71
2019-02-20T00:58:34.220Z,77.61
2019-02-20T01:01:24.345Z,77.36
2019-02-20T01:04:13.908Z,77.49
2019-02-20T01:07:03.565Z,76.85
2019-02-20T01:09:53.212Z,77.52
2019-02-20T01:12:42.943Z,77.84
2019-02-20T01:15:32.058Z,77.49
2019-02-20T01:18:22.009Z,76.95
2019-02-20T01:21:11.249Z,77.54
2019-02-20T01:24:00.700Z,77.46
2019-02-20T01:26:50.056Z,77.09
2019-02-20T01:29:40.104Z,76.76
2019-02-20T01:32:29.336Z,76.29
2019-02-20T01:35:18.817Z,76.75
2019-02-20T01:38:07.966Z,76.23
2019-02-20T01:40:57.440Z,75.90
2019-02-20T01:43:46.967Z,75.43
2019-02-20T01:46:36.222Z,75.85
2019-02-20T01:49:25.758Z,76.32
2019-02-20T01:52:15.409Z,76.41
2019-02-20T01:55:05.010Z,76.66
2019-02-20T01:57:54.909Z,76.62
2019-02-20T02:00:44.360Z,76.04
2019-02-20T02:03:33.990Z,76.50
2019-02-20T02:06:24.527Z,76.44
2019-02-20T02:09:14.137Z,76.38
2019-02-20T02:12:03.341Z,76.04
2019-02-20T02:14:53.200Z,75.98
2019-02-20T02:17:42.622Z,76.02
2019-02-20T02:20:32.338Z,76.13
2019-02-20T02:23:22.042Z,76.23
2019-02-20T02:26:11.647Z,76.52
2019-02-20T02:29:01.086Z,76.47
2019-02-20T02:31:50.226Z,77.39
2019-02-20T02:34:39.869Z,77.69
2019-02-20T02:37:28.983Z,77.05
2019-02-20T02:40:19.012Z,77.29
2019-02-20T02:43:08.571Z,76.47
2019-02-20T02:45:58.783Z,77.43
2019-02-20T02:48:48.093Z,77.30
2019-02-20T02:51:37.509Z,77.28
2019-02-20T02:54:26.682Z,76.60
2019-02-20T02:57:15.718Z,78.03
2019-02-20T03:00:06.377Z,77.44
2019-02-20T03:02:56.135Z,77.25
2019-02-20T03:05:45.661Z,77.26
2019-02-20T03:08:35.471Z,76.95
2019-02-20T03:11:24.969Z,77.13
2019-02-20T03:14:14.786Z,77.09
2019-02-20T03:17:04.255Z,76.17
2019-02-20T03:19:53.708Z,76.23
2019-02-20T03:22:43.293Z,76.01
2019-02-20T03:25:33.510Z,76.25
2019-02-20T03:28:23.135Z,76.21
2019-02-20T03:31:15.404Z,77.15
2019-02-20T03:34:08.807Z,76.68
2019-02-20T03:36:55.484Z,76.53
2019-02-20T03:39:45.003Z,76.36
2019-02-20T03:42:34.219Z,76.43
2019-02-20T03:45:23.915Z,76.87
2019-02-20T03:48:13.529Z,76.67
2019-02-20T03:51:02.948Z,77.10
2019-02-20T03:53:52.643Z,76.91
2019-02-20T03:56:42.049Z,76.81
2019-02-20T03:59:31.681Z,76.46
2019-02-20T04:02:20.927Z,76.17
2019-02-20T04:05:10.965Z,76.09
2019-02-20T04:08:00.622Z,77.03
2019-02-20T04:10:50.722Z,77.02
2019-02-20T04:13:39.923Z,76.54
2019-02-20T04:16:29.132Z,77.68
2019-02-20T04:19:18.675Z,76.98
2019-02-20T04:22:07.869Z,76.55
2019-02-20T04:24:57.544Z,76.03
2019-02-20T04:27:47.187Z,76.35
2019-02-20T04:30:37.211Z,77.02
2019-02-20T04:33:26.611Z,77.02
2019-02-20T04:36:16.206Z,77.02
2019-02-20T04:39:08.795Z,76.34
2019-02-20T04:41:58.742Z,76.52
2019-02-20T04:44:47.979Z,76.65
2019-02-20T04:47:37.597Z,76.62
2019-02-20T04:50:27.108Z,76.80
2019-02-20T04:53:16.878Z,76.83
2019-02-20T04:56:06.042Z,76.49
2019-02-20T04:58:59.070Z,75.87
2019-02-20T05:01:48.611Z,76.21
2019-02-20T05:04:38.574Z,76.62
2019-02-20T05:07:28.009Z,76.81
2019-02-20T05:10:18.050Z,76.86
2019-02-20T05:13:07.534Z,76.88
2019-02-20T05:15:57.792Z,76.60
2019-02-20T05:18:47.369Z,76.58
2019-02-20T05:21:36.803Z,77.25
2019-02-20T05:24:26.295Z,77.37
2019-02-20T05:27:16.276Z,78.39
2019-02-20T05:30:05.817Z,77.34
2019-02-20T05:32:55.491Z,78.77
2019-02-20T05:35:45.430Z,79.52
2019-02-20T05:38:36.038Z,78.70
2019-02-20T05:41:25.231Z,78.75
2019-02-20T05:44:14.466Z,79.38
2019-02-20T05:47:03.963Z,79.31
2019-02-20T05:49:53.665Z,78.68
2019-02-20T05:52:43.102Z,78.49
2019-02-20T05:55:32.778Z,77.52
2019-02-20T05:58:49.812Z,77.78
2019-02-20T06:01:39.538Z,77.92
2019-02-20T06:04:29.048Z,78.08
2019-02-20T06:07:18.696Z,78.33
2019-02-20T06:10:08.764Z,77.92
2019-02-20T06:12:58.184Z,77.63
2019-02-20T06:15:47.409Z,77.09
2019-02-20T06:18:36.608Z,77.42
2019-02-20T06:21:25.741Z,77.36
2019-02-20T06:24:15.213Z,77.11
2019-02-20T06:27:04.714Z,77.29
2019-02-20T06:29:54.844Z,77.21
2019-02-20T06:32:44.334Z,77.09
2019-02-20T06:35:34.192Z,77.20
2019-02-20T06:38:23.349Z,78.47
2019-02-20T06:41:13.030Z,78.03
2019-02-20T06:44:02.222Z,77.97
2019-02-20T06:46:51.958Z,78.17
2019-02-20T06:49:41.593Z,78.84
2019-02-20T06:52:31.498Z,78.76
2019-02-20T06:55:20.704Z,78.61
2019-02-20T06:58:10.606Z,77.71
2019-02-20T07:01:00.083Z,77.76
2019-02-20T07:03:49.710Z,77.95
2019-02-20T07:07:02.698Z,77.69
2019-02-20T07:10:26.098Z,79.68
2019-02-20T07:13:47.170Z,80.42
2019-02-20T07:17:02.282Z,80.02
2019-02-20T07:20:17.653Z,78.81
2019-02-20T07:23:39.538Z,77.62
2019-02-20T07:26:58.627Z,77.97
2019-02-20T07:30:06.841Z,77.39
2019-02-20T07:32:56.512Z,76.94
2019-02-20T07:35:45.832Z,76.20
2019-02-20T07:38:35.501Z,75.22
2019-02-20T07:41:24.667Z,75.97
2019-02-20T07:44:14.552Z,76.35
2019-02-20T07:47:03.966Z,76.79
2019-02-20T07:49:53.604Z,75.66
2019-02-20T07:52:43.991Z,76.05
2019-02-20T07:55:33.525Z,75.63
2019-02-20T07:58:23.522Z,75.58
2019-02-20T08:01:12.733Z,75.33
2019-02-20T08:04:02.012Z,75.02
2019-02-20T08:06:51.284Z,74.76
2019-02-20T08:09:41.422Z,74.58
2019-02-20T08:12:30.915Z,74.69
2019-02-20T08:15:20.228Z,74.47
2019-02-20T08:18:09.853Z,73.90
2019-02-20T08:20:59.113Z,73.50
2019-02-20T08:23:49.277Z,73.53
2019-02-20T08:26:38.555Z,73.59
2019-02-20T08:29:27.909Z,73.74
2019-02-20T08:32:17.412Z,73.14
2019-02-20T08:35:07.730Z,72.63
2019-02-20T08:37:57.107Z,72.96
2019-02-20T08:40:46.920Z,72.56
2019-02-20T08:43:36.223Z,70.59
2019-02-20T08:46:26.195Z,70.94
2019-02-20T08:49:15.878Z,70.62
2019-02-20T08:52:06.334Z,69.69
2019-02-20T08:54:56.045Z,69.55
2019-02-20T08:57:45.507Z,69.93
2019-02-20T09:00:35.569Z,69.80
2019-02-20T09:03:24.778Z,70.68
2019-02-20T09:06:14.144Z,68.49
2019-02-20T09:09:06.987Z,68.22
2019-02-20T09:11:56.181Z,68.08
2019-02-20T09:14:45.458Z,67.79
2019-02-20T09:17:34.779Z,68.33
2019-02-20T09:20:24.169Z,64.70
2019-02-20T09:23:13.571Z,62.57
2019-02-20T09:26:03.555Z,59.26
2019-02-20T09:28:53.028Z,60.56
2019-02-20T09:31:42.625Z,59.72
2019-02-20T09:34:32.469Z,60.02
2019-02-20T09:37:21.682Z,58.12
2019-02-20T09:40:14.204Z,58.15
2019-02-20T09:43:03.683Z,58.42
2019-02-20T09:45:52.939Z,57.10
2019-02-20T09:48:42.221Z,57.64
2019-02-20T09:51:31.706Z,55.25
2019-02-20T09:54:21.214Z,55.39
2019-02-20T09:57:10.640Z,55.39
2019-02-20T09:59:59.771Z,54.11
2019-02-20T10:02:49.332Z,53.45
2019-02-20T10:05:38.548Z,53.43
2019-02-20T10:08:28.069Z,52.54
2019-02-20T10:11:17.551Z,51.68
2019-02-20T10:14:10.039Z,51.00
2019-02-20T10:17:00.219Z,49.90
2019-02-20T10:19:49.858Z,50.65
2019-02-20T10:22:39.055Z,50.51
2019-02-20T10:25:28.828Z,47.74
2019-02-20T10:28:18.408Z,48.79
2019-02-20T10:31:08.031Z,48.57
2019-02-20T10:33:57.311Z,47.54
2019-02-20T10:36:46.940Z,48.38
2019-02-20T10:39:36.414Z,46.03
2019-02-20T10:42:26.032Z,46.22
2019-02-20T10:45:15.435Z,46.01
2019-02-20T10:48:05.048Z,44.51
2019-02-20T10:50:54.781Z,45.64
2019-02-20T10:53:44.107Z,46.73
2019-02-20T10:56:37.179Z,44.69
2019-02-20T10:59:26.770Z,44.83
2019-02-20T11:02:16.826Z,44.98
2019-02-20T11:05:06.826Z,44.54
2019-02-20T11:07:56.702Z,45.88
2019-02-20T11:10:45.654Z,45.21
2019-02-20T11:13:35.002Z,44.21
2019-02-20T11:16:25.167Z,43.79
2019-02-20T11:19:15.683Z,42.05
2019-02-20T11:22:05.347Z,42.77
2019-02-20T11:24:55.265Z,39.88
2019-02-20T11:27:44.486Z,41.63
2019-02-20T11:30:33.672Z,41.39
2019-02-20T11:33:22.928Z,42.81
2019-02-20T11:36:12.860Z,44.75
2019-02-20T11:39:02.232Z,44.70
2019-02-20T11:41:52.021Z,41.25
2019-02-20T11:44:49.839Z,41.42
2019-02-20T11:47:46.816Z,43.70
2019-02-20T11:50:43.785Z,42.01
2019-02-20T11:53:37.193Z,42.83
2019-02-20T11:56:26.808Z,45.09
2019-02-20T11:59:16.856Z,44.88
2019-02-20T12:02:06.400Z,46.58
2019-02-20T12:04:56.225Z,47.19
2019-02-20T12:07:45.943Z,47.77
2019-02-20T12:10:36.630Z,48.01
2019-02-20T12:13:26.503Z,47.54
2019-02-20T12:16:16.264Z,46.94
2019-02-20T12:19:08.078Z,49.34
2019-02-20T12:21:58.235Z,51.40
2019-02-20T12:24:47.609Z,49.47
2019-02-20T12:27:36.829Z,50.52
2019-02-20T12:30:26.739Z,49.29
2019-02-20T12:33:16.225Z,48.05
2019-02-20T12:36:06.257Z,49.25
2019-02-20T12:38:55.883Z,49.30
2019-02-20T12:41:47.318Z,48.63
2019-02-20T12:44:36.719Z,48.63
2019-02-20T12:50:51.521Z,50.21
2019-02-20T12:53:40.984Z,49.84
2019-02-20T12:56:30.513Z,50.29
2019-02-20T12:59:19.427Z,50.78
2019-02-20T13:02:09.407Z,50.40
2019-02-20T13:04:58.772Z,49.54
2019-02-20T13:07:48.125Z,50.06
2019-02-20T13:10:37.587Z,50.97
2019-02-20T13:13:27.042Z,52.24
2019-02-20T13:16:16.811Z,51.54
2019-02-20T13:19:14.659Z,50.81
2019-02-20T13:22:04.329Z,50.79
2019-02-20T13:24:53.515Z,51.16
2019-02-20T13:27:42.764Z,49.05
2019-02-20T13:30:32.780Z,50.21
2019-02-20T13:33:22.230Z,48.68
2019-02-20T13:36:12.218Z,48.96
2019-02-20T13:39:01.488Z,49.43
2019-02-20T13:41:50.765Z,50.08
2019-02-20T13:44:40.445Z,48.93
2019-02-20T13:47:30.018Z,48.05
2019-02-20T13:50:19.277Z,48.26
2019-02-20T13:53:09.024Z,49.12
2019-02-20T13:55:59.645Z,47.81
2019-02-20T13:58:49.558Z,49.03
2019-02-20T14:01:38.659Z,48.90
2019-02-20T14:04:28.549Z,49.64
2019-02-20T14:07:17.771Z,49.11
2019-02-20T14:10:10.897Z,49.04
2019-02-20T14:13:00.338Z,49.35
2019-02-20T14:15:49.971Z,49.95
2019-02-20T14:18:39.281Z,49.61
2019-02-20T14:21:29.322Z,50.44
2019-02-20T14:24:18.826Z,50.55
2019-02-20T14:27:10.886Z,50.74
2019-02-20T14:29:59.222Z,50.74
2019-02-20T14:32:48.854Z,50.25
2019-02-20T14:35:38.507Z,50.17
2019-02-20T14:38:27.992Z,50.56
2019-02-20T14:41:17.562Z,51.31
2019-02-20T14:44:08.707Z,51.80
2019-02-20T14:46:57.939Z,52.45
2019-02-20T14:49:47.374Z,52.89
2019-02-20T14:52:36.813Z,53.44
2019-02-20T14:55:26.013Z,53.11
2019-02-20T14:58:15.555Z,54.32
2019-02-20T15:01:06.211Z,54.66
2019-02-20T15:03:56.316Z,54.94
2019-02-20T15:06:46.374Z,54.94
2019-02-20T15:09:35.745Z,55.25
2019-02-20T15:12:25.419Z,56.90
2019-02-20T15:15:14.812Z,56.86
2019-02-20T15:18:04.570Z,54.95
2019-02-20T15:20:54.455Z,55.96
2019-02-20T15:23:43.791Z,56.63
2019-02-20T15:26:33.258Z,56.55
2019-02-20T15:29:22.667Z,56.58
2019-02-20T15:32:11.890Z,57.26
2019-02-20T15:35:01.764Z,56.87
2019-02-20T15:37:51.623Z,57.07
2019-02-20T15:40:41.141Z,56.43
2019-02-20T15:43:31.252Z,55.98
2019-02-20T15:46:20.647Z,56.55
2019-02-20T15:49:10.516Z,56.15
2019-02-20T15:52:00.401Z,56.36
2019-02-20T15:54:49.632Z,56.92
2019-02-20T15:57:39.267Z,56.51
2019-02-20T16:00:29.036Z,57.25
2019-02-20T16:03:18.495Z,57.25
2019-02-20T16:06:07.791Z,57.91
2019-02-20T16:08:57.185Z,58.06
2019-02-20T16:11:46.362Z,58.91
2019-02-20T16:14:36.367Z,59.53
2019-02-20T16:17:25.948Z,59.66
2019-02-20T16:20:15.405Z,59.88
2019-02-20T16:23:04.961Z,58.94
2019-02-20T16:25:54.417Z,59.59
2019-02-20T16:28:44.700Z,60.22
2019-02-20T16:31:35.559Z,60.49
2019-02-20T16:34:25.447Z,60.14
2019-02-20T16:37:14.933Z,60.13
2019-02-20T16:40:04.641Z,60.33
2019-02-20T16:42:56.609Z,60.41
2019-02-20T16:45:46.724Z,60.99
2019-02-20T16:48:37.485Z,60.93
2019-02-20T16:51:27.118Z,62.71
2019-02-20T16:54:16.520Z,62.56
2019-02-20T16:57:06.063Z,62.20
2019-02-20T16:59:55.550Z,62.18
2019-02-20T17:02:49.155Z,62.35
2019-02-20T17:05:39.951Z,62.08
2019-02-20T17:08:29.758Z,63.76
2019-02-20T17:11:19.418Z,63.71
2019-02-20T17:14:11.550Z,63.51
2019-02-20T17:17:01.408Z,63.66
2019-02-20T17:19:51.401Z,63.98
2019-02-20T17:22:40.557Z,63.86
2019-02-20T17:25:29.823Z,64.40
2019-02-20T17:28:19.255Z,64.56
2019-02-20T17:31:08.917Z,63.93
2019-02-20T17:33:58.577Z,65.27
2019-02-20T17:36:48.726Z,65.08
2019-02-20T17:39:38.080Z,64.89
2019-02-20T17:42:28.020Z,65.29
2019-02-20T17:45:17.446Z,64.89
2019-02-20T17:48:07.806Z,64.88
2019-02-20T17:50:57.018Z,64.95
2019-02-20T17:53:46.622Z,65.10
2019-02-20T17:56:36.213Z,64.99
2019-02-20T17:59:26.412Z,65.44
2019-02-20T18:02:15.958Z,64.51
2019-02-20T18:05:06.266Z,65.58
2019-02-20T18:07:55.722Z,65.22
2019-02-20T18:10:45.751Z,65.40
2019-02-20T18:13:35.277Z,65.49
2019-02-20T18:16:25.207Z,65.43
2019-02-20T18:19:16.650Z,65.23
2019-02-20T18:22:08.436Z,65.44
2019-02-20T18:24:59.065Z,66.33
2019-02-20T18:27:49.753Z,66.13
2019-02-20T18:30:40.531Z,66.39
2019-02-20T18:33:30.530Z,65.77
2019-02-20T18:36:21.252Z,65.52
2019-02-20T18:39:11.324Z,65.79
2019-02-20T18:42:01.907Z,65.97
2019-02-20T18:44:52.500Z,66.57
2019-02-20T18:48:05.667Z,66.43
2019-02-20T18:50:55.860Z,66.18
2019-02-20T18:54:39.779Z,66.22
2019-02-20T18:57:30.026Z,66.62
2019-02-20T19:00:20.472Z,67.17
2019-02-20T19:03:13.505Z,67.38
2019-02-20T19:06:03.962Z,67.15
2019-02-20T19:09:14.138Z,67.44
2019-02-20T19:12:40.866Z,66.81
2019-02-20T19:16:21.243Z,67.52
2019-02-20T19:19:40.623Z,67.55
2019-02-20T19:23:04.096Z,67.40
2019-02-20T19:26:34.746Z,67.82
2019-02-20T19:30:01.034Z,67.96
2019-02-20T19:33:18.130Z,67.02
2019-02-20T19:36:23.939Z,68.34
2019-02-20T19:39:55.429Z,68.44
2019-02-20T19:43:10.145Z,68.04
2019-02-20T19:46:52.953Z,69.87
2019-02-20T19:50:20.267Z,69.72
2019-02-20T19:53:34.460Z,69.21
2019-02-20T19:57:06.941Z,69.60
2019-02-20T20:00:23.651Z,69.87
2019-02-20T20:03:55.893Z,70.23
2019-02-20T20:07:38.307Z,69.76
2019-02-20T20:10:58.883Z,69.77
2019-02-20T20:14:41.354Z,69.57
2019-02-20T20:18:12.990Z,69.38
2019-02-20T20:21:37.779Z,71.13
2019-02-20T20:25:16.357Z,71.14
2019-02-20T20:28:48.499Z,70.58
2019-02-20T20:32:14.250Z,70.49
2019-02-20T20:35:43.186Z,69.75
2019-02-20T20:39:07.018Z,70.34
2019-02-20T20:42:28.270Z,71.31
2019-02-20T20:45:27.736Z,70.96
2019-02-20T20:48:50.560Z,71.63
2019-02-20T20:52:12.692Z,71.54
2019-02-20T20:55:38.098Z,70.60
2019-02-20T20:59:01.310Z,71.31
2019-02-20T21:02:28.090Z,71.29
2019-02-20T21:05:54.215Z,71.31
2019-02-20T21:09:26.182Z,71.59
2019-02-20T21:12:59.864Z,71.69
2019-02-20T21:16:35.958Z,71.60
2019-02-20T21:19:46.059Z,71.68
2019-02-20T21:23:22.715Z,71.85
2019-02-20T21:26:44.062Z,71.30
2019-02-20T21:30:15.316Z,70.84
2019-02-20T21:34:09.108Z,72.53
2019-02-20T21:37:44.467Z,71.72
2019-02-20T21:41:00.096Z,71.10
2019-02-20T21:44:12.158Z,71.70
2019-02-20T21:47:34.960Z,71.59
2019-02-20T21:50:47.572Z,71.53
2019-02-20T21:54:10.156Z,72.61
2019-02-20T21:57:23.467Z,73.50
2019-02-20T22:01:09.594Z,73.37
2019-02-20T22:04:18.232Z,73.29
2019-02-20T22:07:44.903Z,73.91
2019-02-20T22:11:24.300Z,73.41
2019-02-20T22:14:56.264Z,73.73
2019-02-20T22:18:44.248Z,73.99
2019-02-20T22:22:08.153Z,73.67
2019-02-20T22:25:41.099Z,72.87
2019-02-20T22:28:57.102Z,72.78
2019-02-20T22:32:28.987Z,73.42
2019-02-20T22:35:58.298Z,74.55
2019-02-20T22:39:18.078Z,73.76
2019-02-20T22:42:51.913Z,74.06
2019-02-20T22:46:05.540Z,74.18
2019-02-20T22:49:44.909Z,74.54
2019-02-20T22:52:53.719Z,73.18
2019-02-20T22:56:16.037Z,75.13
2019-02-20T22:59:30.830Z,74.88
2019-02-20T23:03:00.326Z,74.75
2019-02-20T23:06:19.632Z,76.16
2019-02-20T23:09:42.719Z,75.81
2019-02-20T23:13:43.255Z,76.02
2019-02-20T23:16:32.647Z,77.02
2019-02-20T23:19:22.051Z,77.10
2019-02-20T23:22:11.484Z,77.14
2019-02-20T23:25:01.102Z,76.80
2019-02-20T23:27:50.508Z,77.02
2019-02-20T23:30:40.339Z,76.64
2019-02-20T23:33:30.102Z,76.56
2019-02-20T23:36:19.706Z,76.92
2019-02-20T23:39:11.412Z,76.82
2019-02-20T23:42:01.331Z,76.95
2019-02-20T23:44:51.083Z,76.80
2019-02-20T23:47:40.956Z,76.28
2019-02-20T23:50:30.294Z,76.56
2019-02-20T23:53:20.115Z,76.40
2019-02-20T23:56:10.164Z,75.90
2019-02-20T23:58:59.633Z,75.76
